sensor_id;sensor_type;location;lat;lon;timestamp;P1;durP1;ratioP1;P2;durP2;ratioP2
4786;SDS011;62338;48.832;9.422;2022-08-19T00:01:52;17.00;;;13.90;;
4786;SDS011;62338;48.832;9.422;2022-08-19T00:04:21;17.20;;;14.43;;
4786;SDS011;62338;48.832;9.422;2022-08-19T00:06:50;21.63;;;14.63;;
4786;SDS011;62338;48.832;9.422;2022-08-19T00:09:18;24.10;;;15.70;;
4786;SDS011;62338;48.832;9.422;2022-08-19T00:11:46;18.37;;;14.07;;
4786;SDS011;62338;48.832;9.422;2022-08-19T00:14:13;20.57;;;15.13;;
4786;SDS011;62338;48.832;9.422;2022-08-19T00:16:42;18.90;;;14.50;;
4786;SDS011;62338;48.832;9.422;2022-08-19T00:19:10;16.47;;;14.60;;
4786;SDS011;62338;48.832;9.422;2022-08-19T00:21:36;20.23;;;16.13;;
4786;SDS011;62338;48.832;9.422;2022-08-19T00:24:08;17.63;;;14.80;;
4786;SDS011;62338;48.832;9.422;2022-08-19T00:26:36;20.53;;;15.13;;
4786;SDS011;62338;48.832;9.422;2022-08-19T00:29:03;20.60;;;14.83;;
4786;SDS011;62338;48.832;9.422;2022-08-19T00:31:30;18.17;;;15.50;;
4786;SDS011;62338;48.832;9.422;2022-08-19T00:33:56;18.80;;;15.70;;
4786;SDS011;62338;48.832;9.422;2022-08-19T00:36:23;22.83;;;16.17;;
4786;SDS011;62338;48.832;9.422;2022-08-19T00:38:48;24.80;;;15.67;;
4786;SDS011;62338;48.832;9.422;2022-08-19T00:41:18;26.70;;;16.30;;
4786;SDS011;62338;48.832;9.422;2022-08-19T00:43:56;24.10;;;15.37;;
4786;SDS011;62338;48.832;9.422;2022-08-19T00:46:24;28.67;;;15.30;;
4786;SDS011;62338;48.832;9.422;2022-08-19T00:48:49;20.77;;;15.30;;
4786;SDS011;62338;48.832;9.422;2022-08-19T00:51:16;23.17;;;16.70;;
4786;SDS011;62338;48.832;9.422;2022-08-19T00:53:41;19.97;;;15.20;;
4786;SDS011;62338;48.832;9.422;2022-08-19T00:56:09;19.73;;;15.80;;
4786;SDS011;62338;48.832;9.422;2022-08-19T00:58:35;20.27;;;16.43;;
4786;SDS011;62338;48.832;9.422;2022-08-19T01:01:28;22.10;;;16.00;;
4786;SDS011;62338;48.832;9.422;2022-08-19T01:04:19;23.43;;;17.00;;
4786;SDS011;62338;48.832;9.422;2022-08-19T01:07:10;19.77;;;14.90;;
4786;SDS011;62338;48.832;9.422;2022-08-19T01:10:01;21.00;;;16.37;;
4786;SDS011;62338;48.832;9.422;2022-08-19T01:12:53;25.33;;;17.50;;
4786;SDS011;62338;48.832;9.422;2022-08-19T06:02:28;42.50;;;26.30;;
4786;SDS011;62338;48.832;9.422;2022-08-19T06:04:32;39.23;;;25.90;;
4786;SDS011;62338;48.832;9.422;2022-08-19T06:06:34;39.70;;;26.10;;
4786;SDS011;62338;48.832;9.422;2022-08-19T06:08:37;39.10;;;25.83;;
4786;SDS011;62338;48.832;9.422;2022-08-19T06:10:39;35.30;;;25.50;;
4786;SDS011;62338;48.832;9.422;2022-08-19T06:12:41;37.53;;;26.03;;
4786;SDS011;62338;48.832;9.422;2022-08-19T06:14:43;40.80;;;27.83;;
4786;SDS011;62338;48.832;9.422;2022-08-19T06:16:48;36.20;;;25.40;;
4786;SDS011;62338;48.832;9.422;2022-08-19T06:18:53;40.37;;;26.80;;
4786;SDS011;62338;48.832;9.422;2022-08-19T06:20:58;40.67;;;26.97;;
4786;SDS011;62338;48.832;9.422;2022-08-19T06:23:00;42.07;;;28.60;;
4786;SDS011;62338;48.832;9.422;2022-08-19T06:25:02;41.87;;;26.70;;
4786;SDS011;62338;48.832;9.422;2022-08-19T06:27:04;41.53;;;29.53;;
4786;SDS011;62338;48.832;9.422;2022-08-19T06:29:07;36.87;;;26.87;;
4786;SDS011;62338;48.832;9.422;2022-08-19T06:31:26;38.87;;;27.77;;
4786;SDS011;62338;48.832;9.422;2022-08-19T06:33:29;41.80;;;28.07;;
4786;SDS011;62338;48.832;9.422;2022-08-19T06:35:31;45.93;;;29.90;;
4786;SDS011;62338;48.832;9.422;2022-08-19T06:37:33;50.10;;;32.20;;
4786;SDS011;62338;48.832;9.422;2022-08-19T06:39:37;45.33;;;29.97;;
4786;SDS011;62338;48.832;9.422;2022-08-19T06:41:41;45.17;;;31.20;;
4786;SDS011;62338;48.832;9.422;2022-08-19T06:43:52;44.87;;;30.23;;
4786;SDS011;62338;48.832;9.422;2022-08-19T06:45:56;47.37;;;30.53;;
4786;SDS011;62338;48.832;9.422;2022-08-19T06:48:02;46.63;;;31.53;;
4786;SDS011;62338;48.832;9.422;2022-08-19T06:50:04;49.80;;;32.83;;
4786;SDS011;62338;48.832;9.422;2022-08-19T06:52:06;45.73;;;32.77;;
4786;SDS011;62338;48.832;9.422;2022-08-19T06:54:08;49.30;;;31.07;;
4786;SDS011;62338;48.832;9.422;2022-08-19T06:56:20;47.17;;;32.30;;
4786;SDS011;62338;48.832;9.422;2022-08-19T06:58:26;46.73;;;32.47;;
4786;SDS011;62338;48.832;9.422;2022-08-19T07:00:32;49.23;;;33.30;;
4786;SDS011;62338;48.832;9.422;2022-08-19T07:02:34;54.97;;;33.67;;
4786;SDS011;62338;48.832;9.422;2022-08-19T07:04:38;48.20;;;32.40;;
4786;SDS011;62338;48.832;9.422;2022-08-19T07:06:43;50.37;;;34.47;;
4786;SDS011;62338;48.832;9.422;2022-08-19T07:08:55;52.57;;;35.87;;
4786;SDS011;62338;48.832;9.422;2022-08-19T07:10:58;53.70;;;35.20;;
4786;SDS011;62338;48.832;9.422;2022-08-19T07:13:00;48.33;;;34.90;;
4786;SDS011;62338;48.832;9.422;2022-08-19T07:15:04;49.00;;;34.93;;
4786;SDS011;62338;48.832;9.422;2022-08-19T07:17:10;48.60;;;34.63;;
4786;SDS011;62338;48.832;9.422;2022-08-19T07:19:13;53.20;;;36.10;;
4786;SDS011;62338;48.832;9.422;2022-08-19T07:21:23;59.03;;;37.70;;
4786;SDS011;62338;48.832;9.422;2022-08-19T07:23:29;52.97;;;35.37;;
4786;SDS011;62338;48.832;9.422;2022-08-19T07:25:31;59.90;;;38.80;;
4786;SDS011;62338;48.832;9.422;2022-08-19T07:27:33;52.60;;;36.30;;
4786;SDS011;62338;48.832;9.422;2022-08-19T07:29:35;52.87;;;36.43;;
4786;SDS011;62338;48.832;9.422;2022-08-19T07:31:38;55.33;;;35.50;;
4786;SDS011;62338;48.832;9.422;2022-08-19T07:33:44;54.27;;;35.57;;
4786;SDS011;62338;48.832;9.422;2022-08-19T07:35:47;54.83;;;36.93;;
4786;SDS011;62338;48.832;9.422;2022-08-19T07:37:50;55.87;;;36.23;;
4786;SDS011;62338;48.832;9.422;2022-08-19T07:39:54;59.00;;;36.90;;
4786;SDS011;62338;48.832;9.422;2022-08-19T07:41:57;54.83;;;38.03;;
4786;SDS011;62338;48.832;9.422;2022-08-19T07:44:00;57.53;;;37.10;;
4786;SDS011;62338;48.832;9.422;2022-08-19T07:46:05;57.97;;;38.37;;
4786;SDS011;62338;48.832;9.422;2022-08-19T07:48:07;56.67;;;36.07;;
4786;SDS011;62338;48.832;9.422;2022-08-19T07:50:09;55.43;;;37.10;;
4786;SDS011;62338;48.832;9.422;2022-08-19T07:52:12;56.03;;;38.03;;
4786;SDS011;62338;48.832;9.422;2022-08-19T07:54:14;56.60;;;38.93;;
4786;SDS011;62338;48.832;9.422;2022-08-19T07:56:18;58.93;;;38.43;;
4786;SDS011;62338;48.832;9.422;2022-08-19T07:58:21;52.67;;;37.50;;
4786;SDS011;62338;48.832;9.422;2022-08-19T08:00:23;57.63;;;38.13;;
4786;SDS011;62338;48.832;9.422;2022-08-19T08:02:25;61.60;;;38.73;;
4786;SDS011;62338;48.832;9.422;2022-08-19T08:04:27;50.53;;;35.80;;
4786;SDS011;62338;48.832;9.422;2022-08-19T08:06:49;55.67;;;37.27;;
4786;SDS011;62338;48.832;9.422;2022-08-19T08:09:10;50.73;;;35.87;;
4786;SDS011;62338;48.832;9.422;2022-08-19T08:11:17;57.83;;;37.77;;
4786;SDS011;62338;48.832;9.422;2022-08-19T08:13:21;56.33;;;35.83;;
4786;SDS011;62338;48.832;9.422;2022-08-19T08:15:23;57.37;;;38.13;;
4786;SDS011;62338;48.832;9.422;2022-08-19T08:17:26;55.93;;;37.20;;
4786;SDS011;62338;48.832;9.422;2022-08-19T08:19:49;58.87;;;37.10;;
4786;SDS011;62338;48.832;9.422;2022-08-19T08:21:53;58.57;;;36.03;;
4786;SDS011;62338;48.832;9.422;2022-08-19T08:23:56;53.60;;;35.13;;
4786;SDS011;62338;48.832;9.422;2022-08-19T08:26:03;60.93;;;35.47;;
4786;SDS011;62338;48.832;9.422;2022-08-19T08:28:05;56.33;;;35.20;;
4786;SDS011;62338;48.832;9.422;2022-08-19T08:30:19;48.07;;;33.17;;
4786;SDS011;62338;48.832;9.422;2022-08-19T08:32:23;53.30;;;34.53;;
4786;SDS011;62338;48.832;9.422;2022-08-19T08:34:25;45.10;;;30.07;;
4786;SDS011;62338;48.832;9.422;2022-08-19T08:36:27;43.67;;;30.97;;
4786;SDS011;62338;48.832;9.422;2022-08-19T08:38:28;50.53;;;31.57;;
4786;SDS011;62338;48.832;9.422;2022-08-19T08:40:50;43.97;;;30.83;;
4786;SDS011;62338;48.832;9.422;2022-08-19T08:45:33;35.47;;;27.53;;
4786;SDS011;62338;48.832;9.422;2022-08-19T08:47:43;40.40;;;27.23;;
4786;SDS011;62338;48.832;9.422;2022-08-19T08:52:04;34.70;;;25.80;;
4786;SDS011;62338;48.832;9.422;2022-08-19T08:54:11;40.67;;;25.50;;
4786;SDS011;62338;48.832;9.422;2022-08-19T08:56:16;35.07;;;26.00;;
4786;SDS011;62338;48.832;9.422;2022-08-19T08:58:26;36.83;;;24.30;;
4786;SDS011;62338;48.832;9.422;2022-08-19T09:00:37;34.80;;;24.13;;
4786;SDS011;62338;48.832;9.422;2022-08-19T09:02:42;35.10;;;25.03;;
4786;SDS011;62338;48.832;9.422;2022-08-19T09:04:44;36.63;;;26.47;;
4786;SDS011;62338;48.832;9.422;2022-08-19T09:09:38;38.67;;;26.37;;
4786;SDS011;62338;48.832;9.422;2022-08-19T09:14:07;37.07;;;26.90;;
4786;SDS011;62338;48.832;9.422;2022-08-19T09:16:48;40.30;;;28.03;;
4786;SDS011;62338;48.832;9.422;2022-08-19T09:18:52;38.27;;;27.17;;
4786;SDS011;62338;48.832;9.422;2022-08-19T09:21:02;39.17;;;28.30;;
4786;SDS011;62338;48.832;9.422;2022-08-19T09:23:04;41.03;;;27.50;;
4786;SDS011;62338;48.832;9.422;2022-08-19T09:25:07;57.73;;;29.43;;
4786;SDS011;62338;48.832;9.422;2022-08-19T09:27:10;41.30;;;28.90;;
4786;SDS011;62338;48.832;9.422;2022-08-19T09:29:19;42.00;;;29.13;;
4786;SDS011;62338;48.832;9.422;2022-08-19T09:31:23;42.70;;;27.60;;
4786;SDS011;62338;48.832;9.422;2022-08-19T09:33:30;44.53;;;28.70;;
4786;SDS011;62338;48.832;9.422;2022-08-19T09:35:32;40.43;;;30.03;;
4786;SDS011;62338;48.832;9.422;2022-08-19T09:37:54;41.47;;;29.87;;
4786;SDS011;62338;48.832;9.422;2022-08-19T09:40:00;50.10;;;32.63;;
4786;SDS011;62338;48.832;9.422;2022-08-19T09:42:02;43.43;;;29.80;;
4786;SDS011;62338;48.832;9.422;2022-08-19T09:44:16;45.30;;;31.30;;
4786;SDS011;62338;48.832;9.422;2022-08-19T09:46:19;42.33;;;31.27;;
4786;SDS011;62338;48.832;9.422;2022-08-19T09:48:24;44.27;;;31.23;;
4786;SDS011;62338;48.832;9.422;2022-08-19T09:50:26;48.43;;;30.40;;
4786;SDS011;62338;48.832;9.422;2022-08-19T09:52:27;44.33;;;31.40;;
4786;SDS011;62338;48.832;9.422;2022-08-19T09:54:33;42.50;;;28.70;;
4786;SDS011;62338;48.832;9.422;2022-08-19T09:56:37;49.53;;;31.17;;
4786;SDS011;62338;48.832;9.422;2022-08-19T09:58:42;49.33;;;33.30;;
4786;SDS011;62338;48.832;9.422;2022-08-19T10:00:44;45.27;;;32.50;;
4786;SDS011;62338;48.832;9.422;2022-08-19T10:02:51;42.63;;;31.00;;
4786;SDS011;62338;48.832;9.422;2022-08-19T10:04:53;43.53;;;29.70;;
4786;SDS011;62338;48.832;9.422;2022-08-19T10:07:23;43.20;;;30.33;;
4786;SDS011;62338;48.832;9.422;2022-08-19T10:09:36;40.90;;;29.57;;
4786;SDS011;62338;48.832;9.422;2022-08-19T10:11:40;39.63;;;27.40;;
4786;SDS011;62338;48.832;9.422;2022-08-19T10:13:54;36.77;;;28.37;;
4786;SDS011;62338;48.832;9.422;2022-08-19T10:15:57;33.90;;;27.07;;
4786;SDS011;62338;48.832;9.422;2022-08-19T10:18:10;43.43;;;28.73;;
4786;SDS011;62338;48.832;9.422;2022-08-19T10:20:12;44.30;;;30.23;;
4786;SDS011;62338;48.832;9.422;2022-08-19T10:22:14;46.37;;;30.37;;
4786;SDS011;62338;48.832;9.422;2022-08-19T10:24:16;50.13;;;31.63;;
4786;SDS011;62338;48.832;9.422;2022-08-19T10:26:20;50.13;;;35.00;;
4786;SDS011;62338;48.832;9.422;2022-08-19T10:28:26;54.53;;;30.73;;
4786;SDS011;62338;48.832;9.422;2022-08-19T10:30:30;47.70;;;32.20;;
4786;SDS011;62338;48.832;9.422;2022-08-19T10:32:32;47.60;;;31.47;;
4786;SDS011;62338;48.832;9.422;2022-08-19T10:34:36;48.33;;;30.57;;
4786;SDS011;62338;48.832;9.422;2022-08-19T10:36:49;45.53;;;31.30;;
4786;SDS011;62338;48.832;9.422;2022-08-19T10:38:58;44.90;;;32.00;;
4786;SDS011;62338;48.832;9.422;2022-08-19T10:41:06;43.37;;;30.53;;
4786;SDS011;62338;48.832;9.422;2022-08-19T10:43:19;44.10;;;31.23;;
4786;SDS011;62338;48.832;9.422;2022-08-19T10:45:21;49.23;;;30.37;;
4786;SDS011;62338;48.832;9.422;2022-08-19T10:47:28;47.73;;;30.87;;
4786;SDS011;62338;48.832;9.422;2022-08-19T10:49:32;47.33;;;31.57;;
4786;SDS011;62338;48.832;9.422;2022-08-19T10:51:54;45.57;;;31.20;;
4786;SDS011;62338;48.832;9.422;2022-08-19T10:54:22;42.23;;;29.80;;
4786;SDS011;62338;48.832;9.422;2022-08-19T10:56:47;44.27;;;32.17;;
4786;SDS011;62338;48.832;9.422;2022-08-19T10:58:52;45.03;;;32.53;;
4786;SDS011;62338;48.832;9.422;2022-08-19T11:00:56;46.53;;;32.87;;
4786;SDS011;62338;48.832;9.422;2022-08-19T11:03:02;49.17;;;32.90;;
4786;SDS011;62338;48.832;9.422;2022-08-19T11:05:05;45.33;;;31.47;;
4786;SDS011;62338;48.832;9.422;2022-08-19T11:07:13;48.13;;;32.77;;
4786;SDS011;62338;48.832;9.422;2022-08-19T11:09:20;42.67;;;30.80;;
4786;SDS011;62338;48.832;9.422;2022-08-19T11:11:34;55.13;;;33.23;;
4786;SDS011;62338;48.832;9.422;2022-08-19T11:13:41;51.90;;;32.30;;
4786;SDS011;62338;48.832;9.422;2022-08-19T11:15:47;44.87;;;32.30;;
4786;SDS011;62338;48.832;9.422;2022-08-19T11:17:57;51.77;;;34.00;;
4786;SDS011;62338;48.832;9.422;2022-08-19T11:20:14;47.40;;;31.30;;
4786;SDS011;62338;48.832;9.422;2022-08-19T11:22:21;46.87;;;31.00;;
4786;SDS011;62338;48.832;9.422;2022-08-19T11:24:24;45.50;;;33.30;;
4786;SDS011;62338;48.832;9.422;2022-08-19T11:26:29;47.27;;;33.30;;
4786;SDS011;62338;48.832;9.422;2022-08-19T11:28:35;45.43;;;33.27;;
4786;SDS011;62338;48.832;9.422;2022-08-19T11:30:38;50.13;;;31.43;;
4786;SDS011;62338;48.832;9.422;2022-08-19T11:32:42;55.30;;;32.57;;
4786;SDS011;62338;48.832;9.422;2022-08-19T11:34:49;45.40;;;33.00;;
4786;SDS011;62338;48.832;9.422;2022-08-19T11:36:55;43.70;;;32.10;;
4786;SDS011;62338;48.832;9.422;2022-08-19T11:39:05;52.40;;;33.53;;
4786;SDS011;62338;48.832;9.422;2022-08-19T11:41:10;51.87;;;32.80;;
4786;SDS011;62338;48.832;9.422;2022-08-19T11:43:12;52.17;;;34.07;;
4786;SDS011;62338;48.832;9.422;2022-08-19T11:45:14;54.13;;;35.70;;
4786;SDS011;62338;48.832;9.422;2022-08-19T11:47:19;51.90;;;36.73;;
4786;SDS011;62338;48.832;9.422;2022-08-19T11:49:22;51.37;;;36.00;;
4786;SDS011;62338;48.832;9.422;2022-08-19T11:51:25;57.87;;;38.63;;
4786;SDS011;62338;48.832;9.422;2022-08-19T11:53:29;56.13;;;37.70;;
4786;SDS011;62338;48.832;9.422;2022-08-19T11:55:31;53.07;;;36.50;;
4786;SDS011;62338;48.832;9.422;2022-08-19T11:57:43;59.13;;;37.27;;
4786;SDS011;62338;48.832;9.422;2022-08-19T11:59:49;53.60;;;35.33;;
4786;SDS011;62338;48.832;9.422;2022-08-19T12:01:54;53.73;;;35.40;;
4786;SDS011;62338;48.832;9.422;2022-08-19T12:03:57;53.50;;;37.07;;
4786;SDS011;62338;48.832;9.422;2022-08-19T12:06:02;59.20;;;36.97;;
4786;SDS011;62338;48.832;9.422;2022-08-19T12:08:09;56.50;;;36.50;;
4786;SDS011;62338;48.832;9.422;2022-08-19T12:10:12;48.23;;;33.13;;
4786;SDS011;62338;48.832;9.422;2022-08-19T12:12:19;49.73;;;35.57;;
4786;SDS011;62338;48.832;9.422;2022-08-19T12:14:21;53.10;;;35.50;;
4786;SDS011;62338;48.832;9.422;2022-08-19T12:16:24;52.60;;;35.40;;
4786;SDS011;62338;48.832;9.422;2022-08-19T12:18:28;54.33;;;36.50;;
4786;SDS011;62338;48.832;9.422;2022-08-19T12:20:30;54.63;;;34.20;;
4786;SDS011;62338;48.832;9.422;2022-08-19T12:22:37;45.53;;;34.23;;
4786;SDS011;62338;48.832;9.422;2022-08-19T12:24:39;47.00;;;35.03;;
4786;SDS011;62338;48.832;9.422;2022-08-19T12:26:40;47.73;;;34.30;;
4786;SDS011;62338;48.832;9.422;2022-08-19T12:28:53;52.13;;;37.33;;
4786;SDS011;62338;48.832;9.422;2022-08-19T12:30:56;51.07;;;35.03;;
4786;SDS011;62338;48.832;9.422;2022-08-19T12:32:58;51.97;;;35.30;;
4786;SDS011;62338;48.832;9.422;2022-08-19T12:35:00;46.80;;;33.97;;
4786;SDS011;62338;48.832;9.422;2022-08-19T12:37:03;57.70;;;35.20;;
4786;SDS011;62338;48.832;9.422;2022-08-19T12:39:05;52.57;;;34.40;;
4786;SDS011;62338;48.832;9.422;2022-08-19T12:41:12;48.97;;;35.73;;
4786;SDS011;62338;48.832;9.422;2022-08-19T12:43:16;49.20;;;31.93;;
4786;SDS011;62338;48.832;9.422;2022-08-19T12:45:18;42.50;;;31.70;;
4786;SDS011;62338;48.832;9.422;2022-08-19T12:47:20;45.93;;;32.90;;
4786;SDS011;62338;48.832;9.422;2022-08-19T12:49:22;48.93;;;32.13;;
4786;SDS011;62338;48.832;9.422;2022-08-19T12:51:45;46.80;;;31.47;;
4786;SDS011;62338;48.832;9.422;2022-08-19T12:53:47;38.37;;;28.63;;
4786;SDS011;62338;48.832;9.422;2022-08-19T12:55:57;42.77;;;28.63;;
4786;SDS011;62338;48.832;9.422;2022-08-19T12:58:00;35.87;;;28.07;;
4786;SDS011;62338;48.832;9.422;2022-08-19T13:00:04;47.70;;;31.50;;
4786;SDS011;62338;48.832;9.422;2022-08-19T13:02:13;41.80;;;29.87;;
4786;SDS011;62338;48.832;9.422;2022-08-19T13:04:15;37.33;;;28.07;;
4786;SDS011;62338;48.832;9.422;2022-08-19T13:06:17;39.90;;;28.37;;
4786;SDS011;62338;48.832;9.422;2022-08-19T13:08:20;45.53;;;28.47;;
4786;SDS011;62338;48.832;9.422;2022-08-19T13:10:25;43.07;;;29.40;;
4786;SDS011;62338;48.832;9.422;2022-08-19T13:12:32;36.70;;;28.10;;
4786;SDS011;62338;48.832;9.422;2022-08-19T13:14:34;46.33;;;30.27;;
4786;SDS011;62338;48.832;9.422;2022-08-19T13:16:39;46.57;;;32.17;;
4786;SDS011;62338;48.832;9.422;2022-08-19T13:18:41;39.80;;;29.50;;
4786;SDS011;62338;48.832;9.422;2022-08-19T13:20:45;42.10;;;29.70;;
4786;SDS011;62338;48.832;9.422;2022-08-19T13:22:53;47.93;;;32.53;;
4786;SDS011;62338;48.832;9.422;2022-08-19T13:24:56;46.43;;;33.03;;
4786;SDS011;62338;48.832;9.422;2022-08-19T13:27:00;50.47;;;34.20;;
4786;SDS011;62338;48.832;9.422;2022-08-19T13:29:02;41.13;;;31.87;;
4786;SDS011;62338;48.832;9.422;2022-08-19T13:31:25;39.83;;;31.80;;
4786;SDS011;62338;48.832;9.422;2022-08-19T13:33:47;41.40;;;30.50;;
4786;SDS011;62338;48.832;9.422;2022-08-19T13:35:51;42.87;;;29.73;;
4786;SDS011;62338;48.832;9.422;2022-08-19T13:37:59;45.97;;;31.03;;
4786;SDS011;62338;48.832;9.422;2022-08-19T13:40:13;39.17;;;29.00;;
4786;SDS011;62338;48.832;9.422;2022-08-19T13:42:21;40.27;;;30.10;;
4786;SDS011;62338;48.832;9.422;2022-08-19T13:44:24;44.23;;;31.93;;
4786;SDS011;62338;48.832;9.422;2022-08-19T13:46:27;48.40;;;33.67;;
4786;SDS011;62338;48.832;9.422;2022-08-19T13:48:32;54.50;;;35.33;;
4786;SDS011;62338;48.832;9.422;2022-08-19T13:50:37;51.03;;;34.50;;
4786;SDS011;62338;48.832;9.422;2022-08-19T13:52:42;50.97;;;35.93;;
4786;SDS011;62338;48.832;9.422;2022-08-19T13:54:47;50.83;;;34.47;;
4786;SDS011;62338;48.832;9.422;2022-08-19T13:56:51;43.07;;;31.80;;
4786;SDS011;62338;48.832;9.422;2022-08-19T13:58:56;54.50;;;34.97;;
4786;SDS011;62338;48.832;9.422;2022-08-19T14:01:00;47.30;;;34.60;;
4786;SDS011;62338;48.832;9.422;2022-08-19T14:03:04;45.90;;;34.07;;
4786;SDS011;62338;48.832;9.422;2022-08-19T14:05:10;48.27;;;34.77;;
4786;SDS011;62338;48.832;9.422;2022-08-19T14:07:13;42.43;;;31.50;;
4786;SDS011;62338;48.832;9.422;2022-08-19T14:09:15;38.07;;;31.57;;
4786;SDS011;62338;48.832;9.422;2022-08-19T14:11:17;44.33;;;34.40;;
4786;SDS011;62338;48.832;9.422;2022-08-19T14:13:20;37.63;;;28.37;;
4786;SDS011;62338;48.832;9.422;2022-08-19T14:15:22;42.80;;;30.00;;
4786;SDS011;62338;48.832;9.422;2022-08-19T14:17:25;41.63;;;30.50;;
4786;SDS011;62338;48.832;9.422;2022-08-19T14:19:27;42.53;;;31.13;;
4786;SDS011;62338;48.832;9.422;2022-08-19T14:21:30;40.87;;;30.73;;
4786;SDS011;62338;48.832;9.422;2022-08-19T14:23:32;40.97;;;30.20;;
4786;SDS011;62338;48.832;9.422;2022-08-19T14:25:34;43.60;;;32.40;;
4786;SDS011;62338;48.832;9.422;2022-08-19T14:27:37;42.57;;;29.40;;
4786;SDS011;62338;48.832;9.422;2022-08-19T14:29:40;38.03;;;28.80;;
4786;SDS011;62338;48.832;9.422;2022-08-19T14:31:42;42.27;;;29.97;;
4786;SDS011;62338;48.832;9.422;2022-08-19T14:33:45;36.57;;;27.50;;
4786;SDS011;62338;48.832;9.422;2022-08-19T14:35:48;36.03;;;26.93;;
4786;SDS011;62338;48.832;9.422;2022-08-19T14:37:50;31.97;;;26.07;;
4786;SDS011;62338;48.832;9.422;2022-08-19T14:39:57;34.77;;;27.20;;
4786;SDS011;62338;48.832;9.422;2022-08-19T14:41:59;39.97;;;28.40;;
4786;SDS011;62338;48.832;9.422;2022-08-19T14:44:00;38.87;;;28.63;;
4786;SDS011;62338;48.832;9.422;2022-08-19T14:46:02;39.97;;;28.70;;
4786;SDS011;62338;48.832;9.422;2022-08-19T14:48:05;40.40;;;30.17;;
4786;SDS011;62338;48.832;9.422;2022-08-19T14:50:18;42.93;;;31.53;;
4786;SDS011;62338;48.832;9.422;2022-08-19T14:52:20;42.63;;;29.87;;
4786;SDS011;62338;48.832;9.422;2022-08-19T14:54:22;43.50;;;31.73;;
4786;SDS011;62338;48.832;9.422;2022-08-19T14:56:26;44.93;;;33.07;;
4786;SDS011;62338;48.832;9.422;2022-08-19T14:58:29;45.70;;;33.47;;
4786;SDS011;62338;48.832;9.422;2022-08-19T15:00:31;45.03;;;32.97;;
4786;SDS011;62338;48.832;9.422;2022-08-19T15:02:36;48.37;;;34.43;;
4786;SDS011;62338;48.832;9.422;2022-08-19T15:04:38;48.70;;;33.40;;
4786;SDS011;62338;48.832;9.422;2022-08-19T15:06:40;49.60;;;34.27;;
4786;SDS011;62338;48.832;9.422;2022-08-19T15:08:43;65.13;;;37.80;;
4786;SDS011;62338;48.832;9.422;2022-08-19T15:10:46;61.23;;;38.43;;
4786;SDS011;62338;48.832;9.422;2022-08-19T15:12:48;61.97;;;40.40;;
4786;SDS011;62338;48.832;9.422;2022-08-19T15:14:52;64.97;;;40.50;;
4786;SDS011;62338;48.832;9.422;2022-08-19T15:16:57;58.93;;;38.57;;
4786;SDS011;62338;48.832;9.422;2022-08-19T15:18:59;65.47;;;40.70;;
4786;SDS011;62338;48.832;9.422;2022-08-19T15:21:01;71.87;;;42.90;;
4786;SDS011;62338;48.832;9.422;2022-08-19T15:23:03;73.93;;;44.37;;
4786;SDS011;62338;48.832;9.422;2022-08-19T15:25:06;68.67;;;44.30;;
4786;SDS011;62338;48.832;9.422;2022-08-19T15:27:13;74.33;;;46.17;;
4786;SDS011;62338;48.832;9.422;2022-08-19T15:29:14;70.47;;;45.37;;
4786;SDS011;62338;48.832;9.422;2022-08-19T15:31:18;68.30;;;43.80;;
4786;SDS011;62338;48.832;9.422;2022-08-19T15:33:30;79.30;;;47.00;;
4786;SDS011;62338;48.832;9.422;2022-08-19T15:35:33;68.10;;;43.70;;
4786;SDS011;62338;48.832;9.422;2022-08-19T15:37:35;74.50;;;45.50;;
4786;SDS011;62338;48.832;9.422;2022-08-19T15:39:38;70.03;;;42.70;;
4786;SDS011;62338;48.832;9.422;2022-08-19T15:41:40;69.57;;;43.87;;
4786;SDS011;62338;48.832;9.422;2022-08-19T15:43:45;66.97;;;42.87;;
4786;SDS011;62338;48.832;9.422;2022-08-19T15:45:48;66.07;;;41.87;;
4786;SDS011;62338;48.832;9.422;2022-08-19T15:47:50;64.20;;;44.37;;
4786;SDS011;62338;48.832;9.422;2022-08-19T15:49:52;61.50;;;41.57;;
4786;SDS011;62338;48.832;9.422;2022-08-19T15:52:00;72.07;;;43.73;;
4786;SDS011;62338;48.832;9.422;2022-08-19T15:54:02;76.50;;;43.37;;
4786;SDS011;62338;48.832;9.422;2022-08-19T15:56:06;74.07;;;44.67;;
4786;SDS011;62338;48.832;9.422;2022-08-19T15:58:09;69.70;;;44.20;;
4786;SDS011;62338;48.832;9.422;2022-08-19T16:00:32;66.93;;;40.50;;
4786;SDS011;62338;48.832;9.422;2022-08-19T16:02:53;64.77;;;41.50;;
4786;SDS011;62338;48.832;9.422;2022-08-19T16:05:16;57.33;;;39.17;;
4786;SDS011;62338;48.832;9.422;2022-08-19T16:07:39;61.53;;;38.57;;
4786;SDS011;62338;48.832;9.422;2022-08-19T16:09:41;55.90;;;39.60;;
4786;SDS011;62338;48.832;9.422;2022-08-19T16:11:44;52.50;;;36.63;;
4786;SDS011;62338;48.832;9.422;2022-08-19T16:13:57;64.87;;;38.87;;
4786;SDS011;62338;48.832;9.422;2022-08-19T16:16:00;55.47;;;38.07;;
4786;SDS011;62338;48.832;9.422;2022-08-19T16:18:02;46.90;;;35.17;;
4786;SDS011;62338;48.832;9.422;2022-08-19T16:20:05;53.80;;;36.80;;
4786;SDS011;62338;48.832;9.422;2022-08-19T16:22:11;51.07;;;37.10;;
4786;SDS011;62338;48.832;9.422;2022-08-19T16:24:13;53.43;;;37.10;;
4786;SDS011;62338;48.832;9.422;2022-08-19T16:26:18;51.20;;;35.57;;
4786;SDS011;62338;48.832;9.422;2022-08-19T16:28:20;54.50;;;36.47;;
4786;SDS011;62338;48.832;9.422;2022-08-19T16:30:23;55.23;;;38.40;;
4786;SDS011;62338;48.832;9.422;2022-08-19T16:32:25;51.07;;;36.27;;
4786;SDS011;62338;48.832;9.422;2022-08-19T16:34:27;52.00;;;35.80;;
4786;SDS011;62338;48.832;9.422;2022-08-19T16:36:28;52.03;;;38.30;;
4786;SDS011;62338;48.832;9.422;2022-08-19T16:38:32;56.67;;;39.97;;
4786;SDS011;62338;48.832;9.422;2022-08-19T16:40:34;59.83;;;39.70;;
4786;SDS011;62338;48.832;9.422;2022-08-19T16:42:36;51.17;;;37.63;;
4786;SDS011;62338;48.832;9.422;2022-08-19T16:44:39;50.30;;;35.70;;
4786;SDS011;62338;48.832;9.422;2022-08-19T16:46:43;44.77;;;32.13;;
4786;SDS011;62338;48.832;9.422;2022-08-19T16:48:57;48.97;;;33.87;;
4786;SDS011;62338;48.832;9.422;2022-08-19T16:50:59;46.60;;;31.90;;
4786;SDS011;62338;48.832;9.422;2022-08-19T16:53:05;40.10;;;30.40;;
4786;SDS011;62338;48.832;9.422;2022-08-19T16:55:07;43.53;;;31.00;;
4786;SDS011;62338;48.832;9.422;2022-08-19T16:57:09;43.20;;;31.63;;
4786;SDS011;62338;48.832;9.422;2022-08-19T16:59:12;38.30;;;30.50;;
4786;SDS011;62338;48.832;9.422;2022-08-19T17:01:15;39.90;;;29.43;;
4786;SDS011;62338;48.832;9.422;2022-08-19T17:03:18;35.20;;;26.27;;
4786;SDS011;62338;48.832;9.422;2022-08-19T17:05:42;37.90;;;29.27;;
4786;SDS011;62338;48.832;9.422;2022-08-19T17:07:45;33.10;;;25.30;;
4786;SDS011;62338;48.832;9.422;2022-08-19T17:09:47;35.10;;;27.10;;
4786;SDS011;62338;48.832;9.422;2022-08-19T17:11:50;33.00;;;24.97;;
4786;SDS011;62338;48.832;9.422;2022-08-19T17:13:53;32.10;;;25.87;;
4786;SDS011;62338;48.832;9.422;2022-08-19T17:15:55;32.60;;;23.87;;
4786;SDS011;62338;48.832;9.422;2022-08-19T17:17:59;29.20;;;25.73;;
4786;SDS011;62338;48.832;9.422;2022-08-19T17:20:06;27.90;;;23.13;;
4786;SDS011;62338;48.832;9.422;2022-08-19T17:22:09;27.10;;;21.53;;
4786;SDS011;62338;48.832;9.422;2022-08-19T17:24:13;31.80;;;23.47;;
4786;SDS011;62338;48.832;9.422;2022-08-19T17:26:16;26.30;;;20.60;;
4786;SDS011;62338;48.832;9.422;2022-08-19T17:28:20;27.80;;;23.13;;
4786;SDS011;62338;48.832;9.422;2022-08-19T17:30:24;31.03;;;22.43;;
4786;SDS011;62338;48.832;9.422;2022-08-19T17:32:26;29.70;;;23.10;;
4786;SDS011;62338;48.832;9.422;2022-08-19T17:34:28;30.90;;;22.97;;